METAR Data
IDs: Format: Raw Decoded Include TAF

Data at: 1324 UTC 21 Aug 2019

TIST 211153Z 09010KT 10SM CLR 29/24 A3002 RMK AO2 SLP167 70004 T02940239 10294 20267 51010 $